createdAt,value
2023-01-29T00:01:19.054Z,23.17
2023-01-29T00:03:45.746Z,23.15
2023-01-29T00:06:13.113Z,23.14
2023-01-29T00:08:40.461Z,23.13
2023-01-29T00:11:07.945Z,23.11
2023-01-29T00:13:35.172Z,23.09
2023-01-29T00:16:01.981Z,23.08
2023-01-29T00:18:29.129Z,23.06
2023-01-29T00:20:56.655Z,23.05
2023-01-29T00:23:23.226Z,23.04
2023-01-29T00:25:49.730Z,23.03
2023-01-29T00:28:16.704Z,23.03
2023-01-29T00:30:43.566Z,23.02
2023-01-29T00:33:11.843Z,23.01
2023-01-29T00:35:39.595Z,22.99
2023-01-29T00:38:06.324Z,22.99
2023-01-29T00:40:52.766Z,22.98
2023-01-29T00:43:37.792Z,22.97
2023-01-29T00:46:06.495Z,22.95
2023-01-29T00:48:34.114Z,22.94
2023-01-29T00:51:01.139Z,22.93
2023-01-29T00:53:28.258Z,22.93
2023-01-29T00:55:54.747Z,22.92
2023-01-29T00:58:22.244Z,22.91
2023-01-29T01:00:49.505Z,22.90
2023-01-29T01:03:16.270Z,22.90
2023-01-29T01:05:42.993Z,22.89
2023-01-29T01:08:28.797Z,22.88
2023-01-29T01:10:59.250Z,22.87
2023-01-29T01:13:25.983Z,22.86
2023-01-29T01:15:52.508Z,22.84
2023-01-29T01:18:22.180Z,22.85
2023-01-29T01:20:51.830Z,22.84
2023-01-29T01:23:19.265Z,22.83
2023-01-29T01:25:46.495Z,22.82
2023-01-29T01:28:13.126Z,22.82
2023-01-29T01:30:39.957Z,22.81
2023-01-29T01:33:07.177Z,22.80
2023-01-29T01:35:33.651Z,22.78
2023-01-29T01:38:00.202Z,22.77
2023-01-29T01:40:26.829Z,22.76
2023-01-29T01:42:55.543Z,22.76
2023-01-29T01:45:28.143Z,22.75
2023-01-29T01:47:56.520Z,22.75
2023-01-29T01:50:27.458Z,22.73
2023-01-29T01:52:55.887Z,22.73
2023-01-29T01:55:23.494Z,22.72
2023-01-29T01:57:50.796Z,22.71
2023-01-29T02:00:17.722Z,22.71
2023-01-29T02:03:03.438Z,22.71
2023-01-29T02:05:52.470Z,22.70
2023-01-29T02:08:43.379Z,22.68
2023-01-29T02:11:10.157Z,22.68
2023-01-29T02:13:37.483Z,22.66
2023-01-29T02:16:04.168Z,22.65
2023-01-29T02:18:37.894Z,22.64
2023-01-29T02:21:08.201Z,22.64
2023-01-29T02:23:38.027Z,22.63
2023-01-29T02:26:24.164Z,22.63
2023-01-29T02:29:18.680Z,22.62
2023-01-29T02:31:45.873Z,22.61
2023-01-29T02:34:20.712Z,22.60
2023-01-29T02:36:56.443Z,22.60
2023-01-29T02:39:33.099Z,22.59
2023-01-29T02:42:11.670Z,22.59
2023-01-29T02:44:38.689Z,22.58
2023-01-29T02:47:05.302Z,22.58
2023-01-29T02:49:33.066Z,22.57
2023-01-29T02:52:15.079Z,22.57
2023-01-29T02:54:52.342Z,22.56
2023-01-29T02:57:29.045Z,22.55
2023-01-29T02:59:57.153Z,22.53
2023-01-29T03:02:35.906Z,22.53
2023-01-29T03:05:03.829Z,22.52
2023-01-29T03:07:41.149Z,22.52
2023-01-29T03:10:20.407Z,22.50
2023-01-29T03:12:51.433Z,22.51
2023-01-29T03:15:25.072Z,22.50
2023-01-29T03:18:09.834Z,22.48
2023-01-29T03:20:38.259Z,22.48
2023-01-29T03:23:08.321Z,22.48
2023-01-29T03:25:55.525Z,22.47
2023-01-29T03:28:41.467Z,22.46
2023-01-29T03:31:28.667Z,22.44
2023-01-29T03:34:34.591Z,22.44
2023-01-29T03:37:02.958Z,22.44
2023-01-29T03:39:29.550Z,22.43
2023-01-29T03:42:02.865Z,22.42
2023-01-29T03:44:50.159Z,22.43
2023-01-29T03:47:45.465Z,22.42
2023-01-29T03:50:25.499Z,22.41
2023-01-29T03:52:56.727Z,22.41
2023-01-29T03:55:33.482Z,22.40
2023-01-29T03:58:00.149Z,22.40
2023-01-29T04:00:29.057Z,22.40
2023-01-29T04:03:06.051Z,22.39
2023-01-29T04:05:45.421Z,22.40
2023-01-29T04:08:23.667Z,22.40
2023-01-29T04:10:50.274Z,22.39
2023-01-29T04:13:16.834Z,22.38
2023-01-29T04:15:49.725Z,22.38
2023-01-29T04:18:18.756Z,22.38
2023-01-29T04:21:01.870Z,22.38
2023-01-29T04:23:28.958Z,22.38
2023-01-29T04:26:08.106Z,22.36
2023-01-29T04:28:55.143Z,22.36
2023-01-29T04:31:27.133Z,22.36
2023-01-29T04:33:59.712Z,22.34
2023-01-29T04:36:32.850Z,22.35
2023-01-29T04:39:13.401Z,22.35
2023-01-29T04:41:39.865Z,22.34
2023-01-29T04:44:29.189Z,22.33
2023-01-29T04:47:06.332Z,22.34
2023-01-29T04:49:39.279Z,22.34
2023-01-29T04:52:10.094Z,22.33
2023-01-29T04:54:36.819Z,22.33
2023-01-29T04:57:12.335Z,22.32
2023-01-29T04:59:40.405Z,22.32
2023-01-29T05:02:06.990Z,22.32
2023-01-29T05:04:34.219Z,22.31
2023-01-29T05:07:01.904Z,22.33
2023-01-29T05:09:28.392Z,22.32
2023-01-29T05:11:54.946Z,22.32
2023-01-29T05:14:21.466Z,22.31
2023-01-29T05:16:49.562Z,22.31
2023-01-29T05:19:16.805Z,22.31
2023-01-29T05:21:47.052Z,22.30
2023-01-29T05:24:17.909Z,22.30
2023-01-29T05:27:03.100Z,22.29
2023-01-29T05:29:29.583Z,22.30
2023-01-29T05:31:56.812Z,22.28
2023-01-29T05:34:23.837Z,22.31
2023-01-29T05:36:50.443Z,22.30
2023-01-29T05:39:16.951Z,22.28
2023-01-29T05:41:43.502Z,22.28
2023-01-29T05:44:10.509Z,22.28
2023-01-29T05:46:37.455Z,22.27
2023-01-29T05:49:04.167Z,22.26
2023-01-29T05:51:30.695Z,22.29
2023-01-29T05:53:58.589Z,22.29
2023-01-29T05:56:25.496Z,22.28
2023-01-29T05:58:52.585Z,22.29
2023-01-29T06:01:19.934Z,22.29
2023-01-29T06:03:46.448Z,22.30
2023-01-29T06:06:13.000Z,22.30
2023-01-29T06:08:39.564Z,22.30
2023-01-29T06:11:09.601Z,22.31
2023-01-29T06:13:38.477Z,22.30
2023-01-29T06:16:06.226Z,22.30
2023-01-29T06:18:32.862Z,22.28
2023-01-29T06:21:06.029Z,22.27
2023-01-29T06:23:32.506Z,22.36
2023-01-29T06:25:59.747Z,22.42
2023-01-29T06:28:26.251Z,22.47
2023-01-29T06:30:52.753Z,22.52
2023-01-29T06:33:19.341Z,22.56
2023-01-29T06:35:46.034Z,22.58
2023-01-29T06:38:12.512Z,22.58
2023-01-29T06:40:39.063Z,22.60
2023-01-29T06:43:05.604Z,22.62
2023-01-29T06:45:32.093Z,22.62
2023-01-29T06:48:01.265Z,22.65
2023-01-29T06:50:27.950Z,22.71
2023-01-29T06:52:54.566Z,22.74
2023-01-29T06:55:21.023Z,22.80
2023-01-29T06:57:47.594Z,22.83
2023-01-29T07:00:15.632Z,22.86
2023-01-29T07:02:42.511Z,22.91
2023-01-29T07:05:09.056Z,22.94
2023-01-29T07:07:35.772Z,22.99
2023-01-29T07:10:02.298Z,23.01
2023-01-29T07:12:29.850Z,23.04
2023-01-29T07:14:56.313Z,23.07
2023-01-29T07:17:22.893Z,23.10
2023-01-29T07:19:49.588Z,23.13
2023-01-29T07:22:16.326Z,23.16
2023-01-29T07:24:42.948Z,23.19
2023-01-29T07:27:10.151Z,23.23
2023-01-29T07:29:36.566Z,23.23
2023-01-29T07:32:03.348Z,23.26
2023-01-29T07:34:30.006Z,23.31
2023-01-29T07:36:57.046Z,23.33
2023-01-29T07:39:24.040Z,23.34
2023-01-29T07:41:50.575Z,23.37
2023-01-29T07:44:17.044Z,23.40
2023-01-29T07:46:43.618Z,23.44
2023-01-29T07:49:10.161Z,23.48
2023-01-29T07:51:36.671Z,23.49
2023-01-29T07:54:03.123Z,23.50
2023-01-29T07:56:29.764Z,23.53
2023-01-29T07:58:56.274Z,23.58
2023-01-29T08:01:22.804Z,23.60
2023-01-29T08:03:51.347Z,23.62
2023-01-29T08:06:18.005Z,23.64
2023-01-29T08:08:44.435Z,23.68
2023-01-29T08:11:11.018Z,23.70
2023-01-29T08:13:37.676Z,23.72
2023-01-29T08:16:04.396Z,23.75
2023-01-29T08:18:31.606Z,23.78
2023-01-29T08:21:01.372Z,23.84
2023-01-29T08:23:27.823Z,23.90
2023-01-29T08:25:54.827Z,23.94
2023-01-29T08:28:21.362Z,23.95
2023-01-29T08:30:47.910Z,23.96
2023-01-29T08:33:16.201Z,23.98
2023-01-29T08:35:42.772Z,23.99
2023-01-29T08:38:09.282Z,23.85
2023-01-29T08:40:35.792Z,24.02
2023-01-29T08:43:03.966Z,24.03
2023-01-29T08:45:33.169Z,24.04
2023-01-29T08:47:59.765Z,24.07
2023-01-29T08:50:32.859Z,24.10
2023-01-29T08:52:59.498Z,24.11
2023-01-29T08:55:26.250Z,24.12
2023-01-29T08:57:52.746Z,24.12
2023-01-29T09:00:19.469Z,24.12
2023-01-29T09:02:46.014Z,24.16
2023-01-29T09:05:12.563Z,24.16
2023-01-29T09:07:39.055Z,24.17
2023-01-29T09:10:05.712Z,24.19
2023-01-29T09:12:33.875Z,24.21
2023-01-29T09:15:00.317Z,24.26
2023-01-29T09:17:26.807Z,24.27
2023-01-29T09:19:53.454Z,24.28
2023-01-29T09:22:20.185Z,24.31
2023-01-29T09:24:47.249Z,24.33
2023-01-29T09:27:13.804Z,24.36
2023-01-29T09:29:40.228Z,24.36
2023-01-29T09:32:07.181Z,24.38
2023-01-29T09:34:33.934Z,24.41
2023-01-29T09:37:00.785Z,24.44
2023-01-29T09:39:27.741Z,24.48
2023-01-29T09:42:15.381Z,24.49
2023-01-29T09:44:57.101Z,24.53
2023-01-29T09:47:24.345Z,24.53
2023-01-29T09:49:56.814Z,24.56
2023-01-29T09:52:23.364Z,24.56
2023-01-29T09:55:08.699Z,24.56
2023-01-29T09:57:44.489Z,24.58
2023-01-29T10:00:37.325Z,24.58
2023-01-29T10:03:12.974Z,24.52
2023-01-29T10:05:42.206Z,24.47
2023-01-29T10:08:27.504Z,24.44
2023-01-29T10:11:06.788Z,24.44
2023-01-29T10:13:41.123Z,24.47
2023-01-29T10:16:10.546Z,24.50
2023-01-29T10:18:52.009Z,24.50
2023-01-29T10:21:18.421Z,24.48
2023-01-29T10:23:51.803Z,24.46
2023-01-29T10:26:19.382Z,24.44
2023-01-29T10:28:47.518Z,24.44
2023-01-29T10:31:38.527Z,24.44
2023-01-29T10:34:14.038Z,24.49
2023-01-29T10:36:44.814Z,24.54
2023-01-29T10:39:14.708Z,24.59
2023-01-29T10:41:44.242Z,24.61
2023-01-29T10:44:29.553Z,24.65
2023-01-29T10:47:15.189Z,24.69
2023-01-29T10:50:00.302Z,24.70
2023-01-29T10:52:32.683Z,24.72
2023-01-29T10:55:02.223Z,24.75
2023-01-29T10:57:48.766Z,24.77
2023-01-29T11:00:25.629Z,24.79
2023-01-29T11:02:52.576Z,24.82
2023-01-29T11:05:26.873Z,24.84
2023-01-29T11:07:59.734Z,24.85
2023-01-29T11:10:26.201Z,24.87
2023-01-29T11:12:55.032Z,24.89
2023-01-29T11:15:25.775Z,24.88
2023-01-29T11:18:05.834Z,24.88
2023-01-29T11:20:33.014Z,24.88
2023-01-29T11:23:00.284Z,24.88
2023-01-29T11:25:28.806Z,24.87
2023-01-29T11:27:56.637Z,24.86
2023-01-29T11:30:34.199Z,24.83
2023-01-29T11:33:04.062Z,24.82
2023-01-29T11:35:32.782Z,24.79
2023-01-29T11:38:06.594Z,24.76
2023-01-29T11:40:35.432Z,24.74
2023-01-29T11:43:20.443Z,24.71
2023-01-29T11:45:47.664Z,24.70
2023-01-29T11:48:18.354Z,24.68
2023-01-29T11:50:44.922Z,24.64
2023-01-29T11:53:20.875Z,24.64
2023-01-29T11:55:50.788Z,24.63
2023-01-29T11:58:18.748Z,24.61
2023-01-29T12:00:46.976Z,24.57
2023-01-29T12:03:17.242Z,24.56
2023-01-29T12:05:52.446Z,24.52
2023-01-29T12:08:19.035Z,24.51
2023-01-29T12:10:45.527Z,24.47
2023-01-29T12:13:24.109Z,24.46
2023-01-29T12:15:54.489Z,24.44
2023-01-29T12:18:27.013Z,24.36
2023-01-29T12:20:56.116Z,24.28
2023-01-29T12:23:41.479Z,24.24
2023-01-29T12:26:15.869Z,24.22
2023-01-29T12:29:00.946Z,24.19
2023-01-29T12:31:35.610Z,24.19
2023-01-29T12:34:02.506Z,24.17
2023-01-29T12:36:31.611Z,24.16
2023-01-29T12:38:59.272Z,24.14
2023-01-29T12:41:30.199Z,24.13
2023-01-29T12:43:58.266Z,24.15
2023-01-29T12:46:26.405Z,24.20
2023-01-29T12:48:53.055Z,24.28
2023-01-29T12:51:20.721Z,24.34
2023-01-29T12:53:52.028Z,24.36
2023-01-29T12:56:25.764Z,24.43
2023-01-29T12:58:53.043Z,24.51
2023-01-29T13:01:22.594Z,24.56
2023-01-29T13:03:52.195Z,24.59
2023-01-29T13:06:20.358Z,24.63
2023-01-29T13:08:54.832Z,24.67
2023-01-29T13:11:24.320Z,24.69
2023-01-29T13:13:59.429Z,24.69
2023-01-29T13:16:27.851Z,24.64
2023-01-29T13:19:01.843Z,24.64
2023-01-29T13:21:34.120Z,24.68
2023-01-29T13:24:02.551Z,24.72
2023-01-29T13:26:29.319Z,24.74
2023-01-29T13:28:55.846Z,24.75
2023-01-29T13:31:35.369Z,24.77
2023-01-29T13:34:20.083Z,24.78
2023-01-29T13:36:47.613Z,24.79
2023-01-29T13:39:17.182Z,24.80
2023-01-29T13:41:43.676Z,24.81
2023-01-29T13:44:25.439Z,24.81
2023-01-29T13:47:10.560Z,24.81
2023-01-29T13:49:37.503Z,24.83
2023-01-29T13:52:19.341Z,24.82
2023-01-29T13:54:53.290Z,24.83
2023-01-29T13:57:38.789Z,24.85
2023-01-29T14:00:06.529Z,24.84
2023-01-29T14:02:33.158Z,24.86
2023-01-29T14:05:18.691Z,24.87
2023-01-29T14:07:45.427Z,24.87
2023-01-29T14:10:16.807Z,24.87
2023-01-29T14:12:43.368Z,24.88
2023-01-29T14:15:20.637Z,24.90
2023-01-29T14:17:59.938Z,24.88
2023-01-29T14:20:47.088Z,24.90
2023-01-29T14:23:21.370Z,24.90
2023-01-29T14:25:48.030Z,24.86
2023-01-29T14:28:16.651Z,24.86
2023-01-29T14:30:45.825Z,24.86
2023-01-29T14:33:22.835Z,24.89
2023-01-29T14:35:49.487Z,24.89
2023-01-29T14:38:15.996Z,24.91
2023-01-29T14:40:42.477Z,24.92
2023-01-29T14:43:09.219Z,24.92
2023-01-29T14:45:41.806Z,24.92
2023-01-29T14:48:11.514Z,24.93
2023-01-29T14:50:47.494Z,24.93
2023-01-29T14:53:32.974Z,24.93
2023-01-29T14:56:08.840Z,24.93
2023-01-29T14:58:44.089Z,24.94
2023-01-29T15:01:21.230Z,24.94
2023-01-29T15:03:55.691Z,24.94
2023-01-29T15:06:41.016Z,24.93
2023-01-29T15:09:14.785Z,24.93
2023-01-29T15:11:49.707Z,24.93
2023-01-29T15:14:24.164Z,24.92
2023-01-29T15:16:56.295Z,24.91
2023-01-29T15:19:28.442Z,24.91
2023-01-29T15:22:04.376Z,24.91
2023-01-29T15:24:31.080Z,24.89
2023-01-29T15:26:57.614Z,24.89
2023-01-29T15:29:24.715Z,24.89
2023-01-29T15:31:51.365Z,24.87
2023-01-29T15:34:17.976Z,24.88
2023-01-29T15:36:44.624Z,24.87
2023-01-29T15:39:22.532Z,24.86
2023-01-29T15:41:50.711Z,24.86
2023-01-29T15:44:21.776Z,24.85
2023-01-29T15:46:52.551Z,24.86
2023-01-29T15:49:28.999Z,24.85
2023-01-29T15:51:56.910Z,24.85
2023-01-29T15:54:23.419Z,24.85
2023-01-29T15:56:50.805Z,24.85
2023-01-29T15:59:18.413Z,24.85
2023-01-29T16:01:45.956Z,24.85
2023-01-29T16:04:18.001Z,24.84
2023-01-29T16:06:44.559Z,24.84
2023-01-29T16:09:12.186Z,24.84
2023-01-29T16:11:38.951Z,24.83
2023-01-29T16:14:05.494Z,24.82
2023-01-29T16:16:32.036Z,24.82
2023-01-29T16:19:00.841Z,24.81
2023-01-29T16:21:29.334Z,24.81
2023-01-29T16:23:56.916Z,24.80
2023-01-29T16:26:28.051Z,24.79
2023-01-29T16:28:54.685Z,24.80
2023-01-29T16:31:22.420Z,24.79
2023-01-29T16:33:49.793Z,24.79
2023-01-29T16:36:21.088Z,24.79
2023-01-29T16:38:49.231Z,24.78
2023-01-29T16:41:28.695Z,24.78
2023-01-29T16:44:13.726Z,24.77
2023-01-29T16:46:46.924Z,24.76
2023-01-29T16:49:25.667Z,24.75
2023-01-29T16:51:52.574Z,24.74
2023-01-29T16:54:23.296Z,24.73
2023-01-29T16:56:50.400Z,24.73
2023-01-29T16:59:17.796Z,24.72
2023-01-29T17:01:44.508Z,24.72
2023-01-29T17:04:13.045Z,24.72
2023-01-29T17:06:40.553Z,24.72
2023-01-29T17:09:07.120Z,24.71
2023-01-29T17:11:35.417Z,24.70
2023-01-29T17:14:01.936Z,24.70
2023-01-29T17:16:29.938Z,24.69
2023-01-29T17:18:56.716Z,24.70
2023-01-29T17:21:23.380Z,24.69
2023-01-29T17:23:49.927Z,24.70
2023-01-29T17:26:16.996Z,24.68
2023-01-29T17:28:43.787Z,24.67
2023-01-29T17:31:10.386Z,24.67
2023-01-29T17:33:40.350Z,24.68
2023-01-29T17:36:09.298Z,24.67
2023-01-29T17:38:35.771Z,24.66
2023-01-29T17:41:03.606Z,24.66
2023-01-29T17:43:30.061Z,24.63
2023-01-29T17:45:56.543Z,24.62
2023-01-29T17:48:24.328Z,24.59
2023-01-29T17:50:53.365Z,24.57
2023-01-29T17:53:20.487Z,24.55
2023-01-29T17:55:46.985Z,24.52
2023-01-29T17:58:17.844Z,24.50
2023-01-29T18:00:45.367Z,24.50
2023-01-29T18:03:11.895Z,24.49
2023-01-29T18:05:42.421Z,24.51
2023-01-29T18:08:22.393Z,24.52
2023-01-29T18:10:48.957Z,24.51
2023-01-29T18:13:15.403Z,24.53
2023-01-29T18:15:41.857Z,24.55
2023-01-29T18:18:10.334Z,24.56
2023-01-29T18:20:38.410Z,24.56
2023-01-29T18:23:06.554Z,24.57
2023-01-29T18:25:33.553Z,24.57
2023-01-29T18:28:00.096Z,24.58
2023-01-29T18:30:26.653Z,24.59
2023-01-29T18:32:54.320Z,24.59
2023-01-29T18:35:20.853Z,24.59
2023-01-29T18:37:47.414Z,24.60
2023-01-29T18:40:14.127Z,24.61
2023-01-29T18:42:40.604Z,24.61
2023-01-29T18:45:07.385Z,24.61
2023-01-29T18:47:33.842Z,24.61
2023-01-29T18:50:00.365Z,24.61
2023-01-29T18:52:26.921Z,24.61
2023-01-29T18:54:53.748Z,24.61
2023-01-29T18:58:28.525Z,24.61
2023-01-29T19:00:07.204Z,24.63
2023-01-29T19:02:33.740Z,24.69
2023-01-29T19:05:00.287Z,24.75
2023-01-29T19:07:26.774Z,24.78
2023-01-29T19:09:53.459Z,24.84
2023-01-29T19:12:19.957Z,24.88
2023-01-29T19:14:46.650Z,24.93
2023-01-29T19:17:13.094Z,24.97
2023-01-29T19:19:39.608Z,25.05
2023-01-29T19:22:06.189Z,25.12
2023-01-29T19:24:38.893Z,25.20
2023-01-29T19:27:06.576Z,25.26
2023-01-29T19:29:33.273Z,25.35
2023-01-29T19:31:59.747Z,25.40
2023-01-29T19:34:26.317Z,25.49
2023-01-29T19:36:52.857Z,25.57
2023-01-29T19:39:19.296Z,25.65
2023-01-29T19:41:45.786Z,25.69
2023-01-29T19:44:12.473Z,25.77
2023-01-29T19:46:38.997Z,25.81
2023-01-29T19:49:07.752Z,25.87
2023-01-29T19:51:36.517Z,25.91
2023-01-29T19:54:04.034Z,25.96
2023-01-29T19:56:30.688Z,25.99
2023-01-29T19:58:57.565Z,26.05
2023-01-29T20:01:29.531Z,26.10
2023-01-29T20:03:56.053Z,26.15
2023-01-29T20:06:23.888Z,26.20
2023-01-29T20:08:50.499Z,26.24
2023-01-29T20:11:17.783Z,26.29
2023-01-29T20:13:45.964Z,26.33
2023-01-29T20:16:13.195Z,26.36
2023-01-29T20:18:39.734Z,26.42
2023-01-29T20:21:08.204Z,26.44
2023-01-29T20:23:38.059Z,26.48
2023-01-29T20:26:05.824Z,26.53
2023-01-29T20:28:32.460Z,26.58
2023-01-29T20:30:59.113Z,26.63
2023-01-29T20:33:26.339Z,26.67
2023-01-29T20:35:56.902Z,26.70
2023-01-29T20:38:23.549Z,26.75
2023-01-29T20:40:50.145Z,26.79
2023-01-29T20:43:17.421Z,26.84
2023-01-29T20:45:44.045Z,26.89
2023-01-29T20:48:11.495Z,26.93
2023-01-29T20:50:38.012Z,26.96
2023-01-29T20:53:04.640Z,27.00
2023-01-29T20:55:31.562Z,27.03
2023-01-29T20:58:06.432Z,27.06
2023-01-29T21:00:34.077Z,27.10
2023-01-29T21:03:02.596Z,27.13
2023-01-29T21:05:29.112Z,27.17
2023-01-29T21:07:55.536Z,27.22
2023-01-29T21:10:22.093Z,27.24
2023-01-29T21:12:48.565Z,27.27
2023-01-29T21:15:15.151Z,27.32
2023-01-29T21:17:41.608Z,27.35
2023-01-29T21:20:10.999Z,27.39
2023-01-29T21:22:37.803Z,27.41
2023-01-29T21:25:04.411Z,27.46
2023-01-29T21:27:30.970Z,27.48
2023-01-29T21:29:57.612Z,27.51
2023-01-29T21:32:24.320Z,27.54
2023-01-29T21:34:52.612Z,27.58
2023-01-29T21:37:19.184Z,27.62
2023-01-29T21:39:46.048Z,27.65
2023-01-29T21:42:31.436Z,27.68
2023-01-29T21:44:58.409Z,27.73
2023-01-29T21:47:24.832Z,27.75
2023-01-29T21:49:51.284Z,27.75
2023-01-29T21:52:18.814Z,27.76
2023-01-29T21:54:48.698Z,27.79
2023-01-29T21:57:16.310Z,27.79
2023-01-29T21:59:43.056Z,27.83
2023-01-29T22:02:13.400Z,27.83
2023-01-29T22:04:40.206Z,27.87
2023-01-29T22:07:06.730Z,27.89
2023-01-29T22:09:34.238Z,27.93
2023-01-29T22:12:00.814Z,27.96
2023-01-29T22:14:27.352Z,27.98
2023-01-29T22:16:53.930Z,28.02
2023-01-29T22:19:20.528Z,28.05
2023-01-29T22:21:47.140Z,28.03
2023-01-29T22:24:13.955Z,27.82
2023-01-29T22:26:40.445Z,27.58
2023-01-29T22:29:06.973Z,27.37
2023-01-29T22:31:35.005Z,27.18
2023-01-29T22:34:01.569Z,27.02
2023-01-29T22:36:28.106Z,26.89
2023-01-29T22:38:55.914Z,26.78
2023-01-29T22:41:22.484Z,26.69
2023-01-29T22:43:48.987Z,26.61
2023-01-29T22:46:15.533Z,26.55
2023-01-29T22:48:42.160Z,26.50
2023-01-29T22:51:09.782Z,26.45
2023-01-29T22:53:38.258Z,26.39
2023-01-29T22:56:05.184Z,26.36
2023-01-29T22:58:31.686Z,26.33
2023-01-29T23:00:58.181Z,26.30
2023-01-29T23:03:24.849Z,26.28
2023-01-29T23:05:51.306Z,26.26
2023-01-29T23:08:18.312Z,26.23
2023-01-29T23:10:44.891Z,26.20
2023-01-29T23:13:11.401Z,26.18
2023-01-29T23:15:38.907Z,26.15
2023-01-29T23:18:05.467Z,26.14
2023-01-29T23:20:32.255Z,26.11
2023-01-29T23:22:58.811Z,26.10
2023-01-29T23:25:45.254Z,26.06
2023-01-29T23:28:11.881Z,26.05
2023-01-29T23:30:38.348Z,26.04
2023-01-29T23:33:05.019Z,26.02
2023-01-29T23:35:31.658Z,26.01
2023-01-29T23:37:58.290Z,25.99
2023-01-29T23:40:24.934Z,25.97
2023-01-29T23:42:51.433Z,25.94
2023-01-29T23:45:18.057Z,25.91
2023-01-29T23:47:44.721Z,25.89
2023-01-29T23:50:11.435Z,25.86
2023-01-29T23:52:38.833Z,25.84
2023-01-29T23:55:05.667Z,25.80
2023-01-29T23:57:32.148Z,25.76
2023-01-29T23:59:58.672Z,25.73
